sensor_id;sensor_type;location;lat;lon;timestamp;pressure;altitude;pressure_sealevel;temperature
30001;BMP280;16845;48.670;9.000;2023-06-05T00:02:02;95593.38;;;14.02
30001;BMP280;16845;48.670;9.000;2023-06-05T00:04:30;95593.84;;;13.91
30001;BMP280;16845;48.670;9.000;2023-06-05T00:06:56;95590.91;;;13.80
30001;BMP280;16845;48.670;9.000;2023-06-05T00:09:23;95586.72;;;13.81
30001;BMP280;16845;48.670;9.000;2023-06-05T00:11:49;95594.47;;;13.76
30001;BMP280;16845;48.670;9.000;2023-06-05T00:14:16;95595.53;;;13.71
30001;BMP280;16845;48.670;9.000;2023-06-05T00:16:43;95603.31;;;13.65
30001;BMP280;16845;48.670;9.000;2023-06-05T00:19:09;95600.97;;;13.60
30001;BMP280;16845;48.670;9.000;2023-06-05T00:21:37;95595.22;;;13.57
30001;BMP280;16845;48.670;9.000;2023-06-05T00:24:04;95598.03;;;13.49
30001;BMP280;16845;48.670;9.000;2023-06-05T00:26:31;95598.31;;;13.43
30001;BMP280;16845;48.670;9.000;2023-06-05T00:28:57;95596.06;;;13.36
30001;BMP280;16845;48.670;9.000;2023-06-05T00:31:24;95593.44;;;13.39
30001;BMP280;16845;48.670;9.000;2023-06-05T00:33:50;95595.94;;;13.39
30001;BMP280;16845;48.670;9.000;2023-06-05T00:36:17;95588.09;;;13.25
30001;BMP280;16845;48.670;9.000;2023-06-05T00:38:44;95588.78;;;13.28
30001;BMP280;16845;48.670;9.000;2023-06-05T00:41:11;95591.22;;;13.31
30001;BMP280;16845;48.670;9.000;2023-06-05T00:43:37;95588.09;;;13.25
30001;BMP280;16845;48.670;9.000;2023-06-05T00:46:04;95592.78;;;13.12
30001;BMP280;16845;48.670;9.000;2023-06-05T00:48:32;95594.41;;;13.13
30001;BMP280;16845;48.670;9.000;2023-06-05T00:50:59;95595.00;;;13.20
30001;BMP280;16845;48.670;9.000;2023-06-05T00:53:25;95590.13;;;13.15
30001;BMP280;16845;48.670;9.000;2023-06-05T00:55:54;95592.78;;;13.12
30001;BMP280;16845;48.670;9.000;2023-06-05T00:58:20;95590.50;;;13.06
30001;BMP280;16845;48.670;9.000;2023-06-05T01:00:47;95593.13;;;13.03
30001;BMP280;16845;48.670;9.000;2023-06-05T01:03:14;95596.88;;;12.92
30001;BMP280;16845;48.670;9.000;2023-06-05T01:05:40;95591.34;;;13.05
30001;BMP280;16845;48.670;9.000;2023-06-05T01:08:07;95590.84;;;12.97
30001;BMP280;16845;48.670;9.000;2023-06-05T01:10:33;95587.31;;;13.01
30001;BMP280;16845;48.670;9.000;2023-06-05T01:13:06;95593.69;;;13.10
30001;BMP280;16845;48.670;9.000;2023-06-05T01:15:37;95595.00;;;12.98
30001;BMP280;16845;48.670;9.000;2023-06-05T01:18:04;95601.63;;;13.01
30001;BMP280;16845;48.670;9.000;2023-06-05T01:20:32;95595.34;;;12.88
30001;BMP280;16845;48.670;9.000;2023-06-05T01:23:00;95594.16;;;12.75
30001;BMP280;16845;48.670;9.000;2023-06-05T01:25:26;95600.78;;;12.77
30001;BMP280;16845;48.670;9.000;2023-06-05T01:27:55;95605.31;;;12.91
30001;BMP280;16845;48.670;9.000;2023-06-05T01:30:30;95596.56;;;12.78
30001;BMP280;16845;48.670;9.000;2023-06-05T01:33:01;95603.41;;;12.74
30001;BMP280;16845;48.670;9.000;2023-06-05T01:35:31;95610.84;;;12.77
30001;BMP280;16845;48.670;9.000;2023-06-05T01:38:00;95604.34;;;12.72
30001;BMP280;16845;48.670;9.000;2023-06-05T01:40:27;95597.06;;;12.64
30001;BMP280;16845;48.670;9.000;2023-06-05T01:42:56;95598.69;;;12.65
30001;BMP280;16845;48.670;9.000;2023-06-05T01:45:22;95597.25;;;12.58
30001;BMP280;16845;48.670;9.000;2023-06-05T01:47:50;95599.13;;;12.53
30001;BMP280;16845;48.670;9.000;2023-06-05T01:50:17;95591.94;;;12.43
30001;BMP280;16845;48.670;9.000;2023-06-05T01:52:44;95597.81;;;12.43
30001;BMP280;16845;48.670;9.000;2023-06-05T01:55:14;95593.34;;;12.51
30001;BMP280;16845;48.670;9.000;2023-06-05T01:57:41;95593.69;;;12.41
30001;BMP280;16845;48.670;9.000;2023-06-05T02:00:08;95581.28;;;12.36
30001;BMP280;16845;48.670;9.000;2023-06-05T02:02:35;95593.41;;;12.25
30001;BMP280;16845;48.670;9.000;2023-06-05T02:05:01;95589.97;;;12.28
30001;BMP280;16845;48.670;9.000;2023-06-05T02:07:28;95589.69;;;12.35
30001;BMP280;16845;48.670;9.000;2023-06-05T02:09:54;95583.75;;;12.38
30001;BMP280;16845;48.670;9.000;2023-06-05T02:12:22;95595.59;;;12.34
30001;BMP280;16845;48.670;9.000;2023-06-05T02:14:48;95584.59;;;12.38
30001;BMP280;16845;48.670;9.000;2023-06-05T02:17:15;95587.69;;;12.22
30001;BMP280;16845;48.670;9.000;2023-06-05T02:19:41;95586.84;;;12.21
30001;BMP280;16845;48.670;9.000;2023-06-05T02:22:08;95585.47;;;12.13
30001;BMP280;16845;48.670;9.000;2023-06-05T02:24:34;95589.00;;;12.07
30001;BMP280;16845;48.670;9.000;2023-06-05T02:27:01;95592.91;;;12.16
30001;BMP280;16845;48.670;9.000;2023-06-05T02:29:29;95585.22;;;12.20
30001;BMP280;16845;48.670;9.000;2023-06-05T02:31:55;95588.13;;;12.08
30001;BMP280;16845;48.670;9.000;2023-06-05T02:34:22;95593.34;;;12.02
30001;BMP280;16845;48.670;9.000;2023-06-05T02:36:48;95586.66;;;12.03
30001;BMP280;16845;48.670;9.000;2023-06-05T02:39:15;95590.19;;;11.97
30001;BMP280;16845;48.670;9.000;2023-06-05T02:41:42;95584.59;;;11.89
30001;BMP280;16845;48.670;9.000;2023-06-05T02:44:09;95592.34;;;11.83
30001;BMP280;16845;48.670;9.000;2023-06-05T02:46:37;95590.13;;;11.74
30001;BMP280;16845;48.670;9.000;2023-06-05T02:49:03;95584.25;;;11.74
30001;BMP280;16845;48.670;9.000;2023-06-05T02:51:30;95578.03;;;11.85
30001;BMP280;16845;48.670;9.000;2023-06-05T02:53:56;95581.91;;;11.94
30001;BMP280;16845;48.670;9.000;2023-06-05T02:56:23;95583.94;;;11.84
30001;BMP280;16845;48.670;9.000;2023-06-05T02:58:49;95589.69;;;11.88
30001;BMP280;16845;48.670;9.000;2023-06-05T03:01:16;95580.72;;;11.79
30001;BMP280;16845;48.670;9.000;2023-06-05T03:03:44;95586.06;;;11.71
30001;BMP280;16845;48.670;9.000;2023-06-05T03:06:10;95583.59;;;11.69
30001;BMP280;16845;48.670;9.000;2023-06-05T03:08:37;95586.75;;;11.75
30001;BMP280;16845;48.670;9.000;2023-06-05T03:11:04;95581.09;;;11.69
30001;BMP280;16845;48.670;9.000;2023-06-05T03:13:31;95587.88;;;11.67
30001;BMP280;16845;48.670;9.000;2023-06-05T03:15:58;95587.03;;;11.67
30001;BMP280;16845;48.670;9.000;2023-06-05T03:18:25;95583.97;;;11.59
30001;BMP280;16845;48.670;9.000;2023-06-05T03:20:53;95583.97;;;11.59
30001;BMP280;16845;48.670;9.000;2023-06-05T03:23:21;95589.13;;;11.53
30001;BMP280;16845;48.670;9.000;2023-06-05T03:25:48;95587.38;;;11.55
30001;BMP280;16845;48.670;9.000;2023-06-05T03:28:14;95587.66;;;11.46
30001;BMP280;16845;48.670;9.000;2023-06-05T03:30:41;95587.59;;;11.49
30001;BMP280;16845;48.670;9.000;2023-06-05T03:33:07;95589.31;;;11.47
30001;BMP280;16845;48.670;9.000;2023-06-05T03:35:34;95585.31;;;11.41
30001;BMP280;16845;48.670;9.000;2023-06-05T03:38:02;95583.88;;;11.34
30001;BMP280;16845;48.670;9.000;2023-06-05T03:40:29;95592.91;;;11.40
30001;BMP280;16845;48.670;9.000;2023-06-05T03:42:55;95588.66;;;11.42
30001;BMP280;16845;48.670;9.000;2023-06-05T03:45:22;95584.28;;;11.47
30001;BMP280;16845;48.670;9.000;2023-06-05T03:47:48;95596.06;;;11.45
30001;BMP280;16845;48.670;9.000;2023-06-05T03:50:15;95601.19;;;11.42
30001;BMP280;16845;48.670;9.000;2023-06-05T03:52:42;95599.94;;;11.55
30001;BMP280;16845;48.670;9.000;2023-06-05T03:55:10;95600.09;;;11.50
30001;BMP280;16845;48.670;9.000;2023-06-05T03:57:36;95601.03;;;11.48
30001;BMP280;16845;48.670;9.000;2023-06-05T04:00:04;95592.69;;;11.46
30001;BMP280;16845;48.670;9.000;2023-06-05T04:02:30;95603.53;;;11.48
30001;BMP280;16845;48.670;9.000;2023-06-05T04:04:57;95592.56;;;11.50
30001;BMP280;16845;48.670;9.000;2023-06-05T04:07:23;95596.03;;;11.46
30001;BMP280;16845;48.670;9.000;2023-06-05T04:09:50;95598.03;;;11.64
30001;BMP280;16845;48.670;9.000;2023-06-05T04:12:18;95597.78;;;11.72
30001;BMP280;16845;48.670;9.000;2023-06-05T04:14:45;95602.41;;;11.83
30001;BMP280;16845;48.670;9.000;2023-06-05T04:17:11;95596.38;;;11.87
30001;BMP280;16845;48.670;9.000;2023-06-05T04:19:38;95612.94;;;11.94
30001;BMP280;16845;48.670;9.000;2023-06-05T04:22:04;95609.38;;;12.00
30001;BMP280;16845;48.670;9.000;2023-06-05T04:24:31;95613.47;;;12.02
30001;BMP280;16845;48.670;9.000;2023-06-05T04:26:57;95613.78;;;12.18
30001;BMP280;16845;48.670;9.000;2023-06-05T04:29:25;95608.47;;;12.27
30001;BMP280;16845;48.670;9.000;2023-06-05T04:31:52;95616.25;;;12.44
30001;BMP280;16845;48.670;9.000;2023-06-05T04:34:19;95618.78;;;12.44
30001;BMP280;16845;48.670;9.000;2023-06-05T04:36:48;95615.16;;;12.51
30001;BMP280;16845;48.670;9.000;2023-06-05T04:39:15;95613.09;;;12.62
30001;BMP280;16845;48.670;9.000;2023-06-05T04:41:42;95611.06;;;12.71
30001;BMP280;16845;48.670;9.000;2023-06-05T04:44:08;95619.13;;;12.81
30001;BMP280;16845;48.670;9.000;2023-06-05T04:46:36;95605.31;;;12.91
30001;BMP280;16845;48.670;9.000;2023-06-05T04:49:03;95608.34;;;13.00
30001;BMP280;16845;48.670;9.000;2023-06-05T04:51:30;95607.13;;;13.10
30001;BMP280;16845;48.670;9.000;2023-06-05T04:53:56;95610.19;;;13.18
30001;BMP280;16845;48.670;9.000;2023-06-05T04:56:23;95604.78;;;13.27
30001;BMP280;16845;48.670;9.000;2023-06-05T04:58:50;95606.06;;;13.37
30001;BMP280;16845;48.670;9.000;2023-06-05T05:01:16;95611.78;;;13.42
30001;BMP280;16845;48.670;9.000;2023-06-05T05:03:44;95604.53;;;13.55
30001;BMP280;16845;48.670;9.000;2023-06-05T05:06:14;95606.00;;;13.60
30001;BMP280;16845;48.670;9.000;2023-06-05T05:08:40;95608.75;;;13.76
30001;BMP280;16845;48.670;9.000;2023-06-05T05:11:07;95607.81;;;13.78
30001;BMP280;16845;48.670;9.000;2023-06-05T05:13:34;95614.53;;;13.99
30001;BMP280;16845;48.670;9.000;2023-06-05T05:16:00;95601.41;;;14.11
30001;BMP280;16845;48.670;9.000;2023-06-05T05:18:27;95610.34;;;14.19
30001;BMP280;16845;48.670;9.000;2023-06-05T05:20:55;95607.25;;;14.33
30001;BMP280;16845;48.670;9.000;2023-06-05T05:23:21;95607.63;;;14.44
30001;BMP280;16845;48.670;9.000;2023-06-05T05:25:48;95602.66;;;14.61
30001;BMP280;16845;48.670;9.000;2023-06-05T05:28:14;95609.78;;;14.71
30001;BMP280;16845;48.670;9.000;2023-06-05T05:30:41;95608.00;;;14.73
30001;BMP280;16845;48.670;9.000;2023-06-05T05:33:07;95605.81;;;14.84
30001;BMP280;16845;48.670;9.000;2023-06-05T05:35:34;95606.72;;;15.02
30001;BMP280;16845;48.670;9.000;2023-06-05T05:38:02;95607.59;;;15.01
30001;BMP280;16845;48.670;9.000;2023-06-05T05:40:28;95612.78;;;14.98
30001;BMP280;16845;48.670;9.000;2023-06-05T05:42:55;95612.16;;;15.11
30001;BMP280;16845;48.670;9.000;2023-06-05T05:45:21;95609.41;;;15.36
30001;BMP280;16845;48.670;9.000;2023-06-05T05:47:48;95607.22;;;15.64
30001;BMP280;16845;48.670;9.000;2023-06-05T05:50:14;95598.84;;;15.80
30001;BMP280;16845;48.670;9.000;2023-06-05T05:52:41;95602.94;;;16.00
30001;BMP280;16845;48.670;9.000;2023-06-05T05:55:09;95605.75;;;16.11
30001;BMP280;16845;48.670;9.000;2023-06-05T05:57:36;95605.34;;;16.37
30001;BMP280;16845;48.670;9.000;2023-06-05T06:00:03;95612.41;;;16.47
30001;BMP280;16845;48.670;9.000;2023-06-05T06:02:30;95602.88;;;16.67
30001;BMP280;16845;48.670;9.000;2023-06-05T06:04:56;95603.03;;;16.81
30001;BMP280;16845;48.670;9.000;2023-06-05T06:07:23;95604.59;;;16.99
30001;BMP280;16845;48.670;9.000;2023-06-05T06:09:49;95600.94;;;17.20
30001;BMP280;16845;48.670;9.000;2023-06-05T06:12:17;95593.16;;;17.23
30001;BMP280;16845;48.670;9.000;2023-06-05T06:14:44;95592.44;;;17.52
30001;BMP280;16845;48.670;9.000;2023-06-05T06:17:10;95598.97;;;17.56
30001;BMP280;16845;48.670;9.000;2023-06-05T06:19:37;95598.56;;;17.64
30001;BMP280;16845;48.670;9.000;2023-06-05T06:22:04;95597.06;;;17.91
30001;BMP280;16845;48.670;9.000;2023-06-05T06:24:30;95595.09;;;17.80
30001;BMP280;16845;48.670;9.000;2023-06-05T06:26:57;95591.75;;;18.09
30001;BMP280;16845;48.670;9.000;2023-06-05T06:29:25;95590.84;;;18.10
30001;BMP280;16845;48.670;9.000;2023-06-05T06:31:52;95597.63;;;18.39
30001;BMP280;16845;48.670;9.000;2023-06-05T06:34:18;95595.84;;;18.55
30001;BMP280;16845;48.670;9.000;2023-06-05T06:36:45;95589.25;;;18.81
30001;BMP280;16845;48.670;9.000;2023-06-05T06:39:11;95589.84;;;18.28
30001;BMP280;16845;48.670;9.000;2023-06-05T06:41:38;95592.22;;;18.59
30001;BMP280;16845;48.670;9.000;2023-06-05T06:44:05;95595.59;;;18.60
30001;BMP280;16845;48.670;9.000;2023-06-05T06:46:33;95591.31;;;19.02
30001;BMP280;16845;48.670;9.000;2023-06-05T06:48:59;95595.97;;;18.82
30001;BMP280;16845;48.670;9.000;2023-06-05T06:51:26;95596.03;;;18.80
30001;BMP280;16845;48.670;9.000;2023-06-05T06:53:52;95589.78;;;18.86
30001;BMP280;16845;48.670;9.000;2023-06-05T06:56:19;95584.41;;;19.18
30001;BMP280;16845;48.670;9.000;2023-06-05T06:58:46;95588.44;;;19.75
30001;BMP280;16845;48.670;9.000;2023-06-05T07:01:13;95588.41;;;20.01
30001;BMP280;16845;48.670;9.000;2023-06-05T07:03:41;95588.19;;;20.31
30001;BMP280;16845;48.670;9.000;2023-06-05T07:06:09;95586.22;;;20.86
30001;BMP280;16845;48.670;9.000;2023-06-05T07:08:35;95585.28;;;20.74
30001;BMP280;16845;48.670;9.000;2023-06-05T07:11:02;95589.69;;;20.97
30001;BMP280;16845;48.670;9.000;2023-06-05T07:13:28;95587.06;;;21.22
30001;BMP280;16845;48.670;9.000;2023-06-05T07:15:55;95583.13;;;21.42
30001;BMP280;16845;48.670;9.000;2023-06-05T07:18:21;95589.53;;;21.60
30001;BMP280;16845;48.670;9.000;2023-06-05T07:20:49;95588.47;;;21.74
30001;BMP280;16845;48.670;9.000;2023-06-05T07:23:16;95580.34;;;22.04
30001;BMP280;16845;48.670;9.000;2023-06-05T07:25:45;95575.53;;;22.68
30001;BMP280;16845;48.670;9.000;2023-06-05T07:28:12;95576.25;;;23.47
30001;BMP280;16845;48.670;9.000;2023-06-05T07:30:39;95572.41;;;23.95
30001;BMP280;16845;48.670;9.000;2023-06-05T07:33:06;95568.06;;;24.07
30001;BMP280;16845;48.670;9.000;2023-06-05T07:35:38;95566.69;;;23.49
30001;BMP280;16845;48.670;9.000;2023-06-05T07:38:06;95573.56;;;23.49
30001;BMP280;16845;48.670;9.000;2023-06-05T07:40:32;95575.09;;;23.51
30001;BMP280;16845;48.670;9.000;2023-06-05T07:42:59;95570.41;;;23.99
30001;BMP280;16845;48.670;9.000;2023-06-05T07:45:25;95577.81;;;24.13
30001;BMP280;16845;48.670;9.000;2023-06-05T07:47:52;95569.81;;;24.58
30001;BMP280;16845;48.670;9.000;2023-06-05T07:50:18;95562.31;;;25.26
30001;BMP280;16845;48.670;9.000;2023-06-05T07:52:45;95561.97;;;25.10
30001;BMP280;16845;48.670;9.000;2023-06-05T07:55:13;95567.22;;;25.08
30001;BMP280;16845;48.670;9.000;2023-06-05T07:57:39;95574.13;;;25.47
30001;BMP280;16845;48.670;9.000;2023-06-05T08:00:07;95563.72;;;25.09
30001;BMP280;16845;48.670;9.000;2023-06-05T08:02:33;95563.84;;;25.38
30001;BMP280;16845;48.670;9.000;2023-06-05T08:05:00;95558.69;;;26.53
30001;BMP280;16845;48.670;9.000;2023-06-05T08:07:27;95563.94;;;26.04
30001;BMP280;16845;48.670;9.000;2023-06-05T08:09:53;95569.69;;;25.59
30001;BMP280;16845;48.670;9.000;2023-06-05T08:12:21;95569.97;;;25.75
30001;BMP280;16845;48.670;9.000;2023-06-05T08:14:47;95565.97;;;25.91
30001;BMP280;16845;48.670;9.000;2023-06-05T08:17:14;95567.25;;;25.57
30001;BMP280;16845;48.670;9.000;2023-06-05T08:19:41;95568.09;;;25.77
30001;BMP280;16845;48.670;9.000;2023-06-05T08:22:07;95564.09;;;26.60
30001;BMP280;16845;48.670;9.000;2023-06-05T08:24:34;95553.78;;;26.60
30001;BMP280;16845;48.670;9.000;2023-06-05T08:27:00;95563.44;;;27.03
30001;BMP280;16845;48.670;9.000;2023-06-05T08:29:28;95565.88;;;26.95
30001;BMP280;16845;48.670;9.000;2023-06-05T08:31:55;95554.06;;;27.12
30001;BMP280;16845;48.670;9.000;2023-06-05T08:34:21;95556.22;;;27.07
30001;BMP280;16845;48.670;9.000;2023-06-05T08:36:48;95558.09;;;27.95
30001;BMP280;16845;48.670;9.000;2023-06-05T08:39:14;95554.09;;;27.56
30001;BMP280;16845;48.670;9.000;2023-06-05T08:41:42;95557.25;;;27.23
30001;BMP280;16845;48.670;9.000;2023-06-05T08:44:11;95550.78;;;27.64
30001;BMP280;16845;48.670;9.000;2023-06-05T08:46:39;95545.50;;;28.45
30001;BMP280;16845;48.670;9.000;2023-06-05T08:49:08;95546.88;;;29.08
30001;BMP280;16845;48.670;9.000;2023-06-05T08:51:37;95554.38;;;29.60
30001;BMP280;16845;48.670;9.000;2023-06-05T08:54:05;95547.91;;;30.05
30001;BMP280;16845;48.670;9.000;2023-06-05T08:56:31;95550.19;;;27.97
30001;BMP280;16845;48.670;9.000;2023-06-05T08:58:58;95550.75;;;27.46
30001;BMP280;16845;48.670;9.000;2023-06-05T09:01:25;95550.94;;;27.89
30001;BMP280;16845;48.670;9.000;2023-06-05T09:03:53;95549.31;;;28.06
30001;BMP280;16845;48.670;9.000;2023-06-05T09:06:20;95553.91;;;27.67
30001;BMP280;16845;48.670;9.000;2023-06-05T09:08:46;95548.47;;;27.07
30001;BMP280;16845;48.670;9.000;2023-06-05T09:11:21;95558.41;;;26.28
30001;BMP280;16845;48.670;9.000;2023-06-05T09:13:47;95550.28;;;27.87
30001;BMP280;16845;48.670;9.000;2023-06-05T09:16:14;95552.63;;;28.16
30001;BMP280;16845;48.670;9.000;2023-06-05T09:18:51;95553.13;;;28.97
30001;BMP280;16845;48.670;9.000;2023-06-05T09:21:19;95559.38;;;29.28
30001;BMP280;16845;48.670;9.000;2023-06-05T09:23:46;95550.56;;;28.80
30001;BMP280;16845;48.670;9.000;2023-06-05T09:26:12;95546.50;;;28.77
30001;BMP280;16845;48.670;9.000;2023-06-05T09:28:52;95543.63;;;28.20
30001;BMP280;16845;48.670;9.000;2023-06-05T09:31:19;95542.78;;;29.64
30001;BMP280;16845;48.670;9.000;2023-06-05T09:33:54;95547.59;;;28.92
30001;BMP280;16845;48.670;9.000;2023-06-05T09:36:23;95543.28;;;29.34
30001;BMP280;16845;48.670;9.000;2023-06-05T09:38:50;95545.66;;;29.61
30001;BMP280;16845;48.670;9.000;2023-06-05T09:41:17;95536.19;;;30.01
30001;BMP280;16845;48.670;9.000;2023-06-05T09:43:44;95538.75;;;29.36
30001;BMP280;16845;48.670;9.000;2023-06-05T09:46:11;95536.69;;;29.89
30001;BMP280;16845;48.670;9.000;2023-06-05T09:48:39;95531.94;;;28.68
30001;BMP280;16845;48.670;9.000;2023-06-05T09:51:10;95531.44;;;27.15
30001;BMP280;16845;48.670;9.000;2023-06-05T09:53:41;95534.81;;;25.17
30001;BMP280;16845;48.670;9.000;2023-06-05T09:56:11;95540.25;;;24.43
30001;BMP280;16845;48.670;9.000;2023-06-05T09:58:40;95539.72;;;25.88
30001;BMP280;16845;48.670;9.000;2023-06-05T10:01:09;95533.81;;;27.71
30001;BMP280;16845;48.670;9.000;2023-06-05T10:03:36;95520.19;;;29.82
30001;BMP280;16845;48.670;9.000;2023-06-05T10:06:06;95521.56;;;27.82
30001;BMP280;16845;48.670;9.000;2023-06-05T10:08:47;95526.81;;;27.09
30001;BMP280;16845;48.670;9.000;2023-06-05T10:11:14;95523.47;;;27.53
30001;BMP280;16845;48.670;9.000;2023-06-05T10:13:41;95531.09;;;26.08
30001;BMP280;16845;48.670;9.000;2023-06-05T10:16:08;95531.44;;;25.56
30001;BMP280;16845;48.670;9.000;2023-06-05T10:18:50;95539.31;;;26.21
30001;BMP280;16845;48.670;9.000;2023-06-05T10:21:18;95539.41;;;28.79
30001;BMP280;16845;48.670;9.000;2023-06-05T10:23:48;95530.41;;;31.80
30001;BMP280;16845;48.670;9.000;2023-06-05T10:26:25;95513.25;;;31.33
30001;BMP280;16845;48.670;9.000;2023-06-05T10:29:05;95532.13;;;29.83
30001;BMP280;16845;48.670;9.000;2023-06-05T10:31:36;95523.41;;;29.27
30001;BMP280;16845;48.670;9.000;2023-06-05T10:34:21;95527.78;;;29.01
30001;BMP280;16845;48.670;9.000;2023-06-05T10:37:03;95536.69;;;28.55
30001;BMP280;16845;48.670;9.000;2023-06-05T10:39:39;95511.34;;;29.43
30001;BMP280;16845;48.670;9.000;2023-06-05T10:42:05;95531.06;;;28.60
30001;BMP280;16845;48.670;9.000;2023-06-05T10:44:38;95526.31;;;29.32
30001;BMP280;16845;48.670;9.000;2023-06-05T10:50:22;95513.69;;;31.83
30001;BMP280;16845;48.670;9.000;2023-06-05T10:52:49;95517.72;;;29.23
30001;BMP280;16845;48.670;9.000;2023-06-05T10:55:17;95527.50;;;28.00
30001;BMP280;16845;48.670;9.000;2023-06-05T10:58:03;95524.28;;;29.51
30001;BMP280;16845;48.670;9.000;2023-06-05T11:00:30;95514.94;;;28.58
30001;BMP280;16845;48.670;9.000;2023-06-05T11:02:57;95512.00;;;27.48
30001;BMP280;16845;48.670;9.000;2023-06-05T11:05:28;95507.22;;;27.70
30001;BMP280;16845;48.670;9.000;2023-06-05T11:08:11;95502.84;;;27.09
30001;BMP280;16845;48.670;9.000;2023-06-05T11:11:01;95517.44;;;25.30
30001;BMP280;16845;48.670;9.000;2023-06-05T11:13:53;95525.88;;;25.51
30001;BMP280;16845;48.670;9.000;2023-06-05T11:16:31;95513.78;;;28.52
30001;BMP280;16845;48.670;9.000;2023-06-05T11:22:08;95499.72;;;30.20
30001;BMP280;16845;48.670;9.000;2023-06-05T11:24:35;95497.94;;;31.54
30001;BMP280;16845;48.670;9.000;2023-06-05T11:27:04;95495.69;;;31.20
30001;BMP280;16845;48.670;9.000;2023-06-05T11:29:32;95497.03;;;32.44
30001;BMP280;16845;48.670;9.000;2023-06-05T11:31:59;95493.38;;;31.56
30001;BMP280;16845;48.670;9.000;2023-06-05T11:34:25;95490.75;;;31.72
30001;BMP280;16845;48.670;9.000;2023-06-05T11:36:52;95482.97;;;34.47
30001;BMP280;16845;48.670;9.000;2023-06-05T11:39:18;95476.25;;;33.75
30001;BMP280;16845;48.670;9.000;2023-06-05T11:41:46;95483.47;;;29.78
30001;BMP280;16845;48.670;9.000;2023-06-05T11:44:14;95487.22;;;27.99
30001;BMP280;16845;48.670;9.000;2023-06-05T11:46:43;95497.41;;;27.12
30001;BMP280;16845;48.670;9.000;2023-06-05T11:49:23;95498.72;;;29.32
30001;BMP280;16845;48.670;9.000;2023-06-05T11:51:49;95488.16;;;33.69
30001;BMP280;16845;48.670;9.000;2023-06-05T11:54:24;95493.56;;;32.66
30001;BMP280;16845;48.670;9.000;2023-06-05T11:56:56;95487.97;;;33.35
30001;BMP280;16845;48.670;9.000;2023-06-05T11:59:24;95489.31;;;31.92
30001;BMP280;16845;48.670;9.000;2023-06-05T12:01:50;95479.78;;;31.54
30001;BMP280;16845;48.670;9.000;2023-06-05T12:04:17;95479.25;;;29.12
30001;BMP280;16845;48.670;9.000;2023-06-05T12:06:46;95479.38;;;29.44
30001;BMP280;16845;48.670;9.000;2023-06-05T12:09:13;95473.19;;;27.32
30001;BMP280;16845;48.670;9.000;2023-06-05T12:11:40;95485.06;;;27.15
30001;BMP280;16845;48.670;9.000;2023-06-05T12:14:06;95486.31;;;28.77
30001;BMP280;16845;48.670;9.000;2023-06-05T12:16:35;95478.88;;;31.77
30001;BMP280;16845;48.670;9.000;2023-06-05T12:19:12;95459.91;;;34.71
30001;BMP280;16845;48.670;9.000;2023-06-05T12:21:42;95464.63;;;32.69
30001;BMP280;16845;48.670;9.000;2023-06-05T12:24:08;95461.47;;;35.87
30001;BMP280;16845;48.670;9.000;2023-06-05T12:26:49;95466.06;;;35.72
30001;BMP280;16845;48.670;9.000;2023-06-05T12:29:15;95455.00;;;38.44
30001;BMP280;16845;48.670;9.000;2023-06-05T12:31:43;95458.91;;;36.78
30001;BMP280;16845;48.670;9.000;2023-06-05T12:34:10;95456.72;;;38.75
30001;BMP280;16845;48.670;9.000;2023-06-05T12:36:40;95461.56;;;36.45
30001;BMP280;16845;48.670;9.000;2023-06-05T12:39:09;95466.91;;;38.09
30001;BMP280;16845;48.670;9.000;2023-06-05T12:41:36;95457.72;;;36.22
30001;BMP280;16845;48.670;9.000;2023-06-05T12:44:03;95449.31;;;38.96
30001;BMP280;16845;48.670;9.000;2023-06-05T12:46:30;95462.53;;;37.03
30001;BMP280;16845;48.670;9.000;2023-06-05T12:48:58;95451.31;;;35.51
30001;BMP280;16845;48.670;9.000;2023-06-05T12:51:24;95443.34;;;34.85
30001;BMP280;16845;48.670;9.000;2023-06-05T12:53:51;95445.59;;;36.99
30001;BMP280;16845;48.670;9.000;2023-06-05T12:56:17;95443.69;;;38.19
30001;BMP280;16845;48.670;9.000;2023-06-05T12:58:44;95436.47;;;41.85
30001;BMP280;16845;48.670;9.000;2023-06-05T13:01:10;95439.47;;;37.37
30001;BMP280;16845;48.670;9.000;2023-06-05T13:03:37;95447.38;;;38.36
30001;BMP280;16845;48.670;9.000;2023-06-05T13:06:05;95441.19;;;37.12
30001;BMP280;16845;48.670;9.000;2023-06-05T13:08:31;95436.31;;;32.82
30001;BMP280;16845;48.670;9.000;2023-06-05T13:10:58;95433.88;;;31.40
30001;BMP280;16845;48.670;9.000;2023-06-05T13:13:25;95432.91;;;30.40
30001;BMP280;16845;48.670;9.000;2023-06-05T13:15:51;95438.34;;;28.15
30001;BMP280;16845;48.670;9.000;2023-06-05T13:18:18;95441.38;;;27.58
30001;BMP280;16845;48.670;9.000;2023-06-05T13:20:44;95459.72;;;27.55
30001;BMP280;16845;48.670;9.000;2023-06-05T13:23:12;95442.88;;;31.52
30001;BMP280;16845;48.670;9.000;2023-06-05T13:25:39;95429.72;;;33.65
30001;BMP280;16845;48.670;9.000;2023-06-05T13:28:05;95418.75;;;36.01
30001;BMP280;16845;48.670;9.000;2023-06-05T13:30:32;95421.38;;;38.59
30001;BMP280;16845;48.670;9.000;2023-06-05T13:32:59;95413.88;;;41.10
30001;BMP280;16845;48.670;9.000;2023-06-05T13:35:25;95411.69;;;37.43
30001;BMP280;16845;48.670;9.000;2023-06-05T13:37:52;95409.25;;;37.04
30001;BMP280;16845;48.670;9.000;2023-06-05T13:40:20;95406.00;;;32.60
30001;BMP280;16845;48.670;9.000;2023-06-05T13:42:46;95406.78;;;32.10
30001;BMP280;16845;48.670;9.000;2023-06-05T13:45:13;95426.34;;;30.84
30001;BMP280;16845;48.670;9.000;2023-06-05T13:47:39;95415.53;;;31.11
30001;BMP280;16845;48.670;9.000;2023-06-05T13:50:07;95415.75;;;32.44
30001;BMP280;16845;48.670;9.000;2023-06-05T13:52:33;95391.28;;;32.24
30001;BMP280;16845;48.670;9.000;2023-06-05T13:55:00;95400.25;;;31.54
30001;BMP280;16845;48.670;9.000;2023-06-05T13:57:28;95405.88;;;29.39
30001;BMP280;16845;48.670;9.000;2023-06-05T13:59:54;95409.44;;;29.38
30001;BMP280;16845;48.670;9.000;2023-06-05T14:02:21;95402.94;;;31.69
30001;BMP280;16845;48.670;9.000;2023-06-05T14:04:48;95390.09;;;29.65
30001;BMP280;16845;48.670;9.000;2023-06-05T14:07:14;95386.38;;;30.08
30001;BMP280;16845;48.670;9.000;2023-06-05T14:09:41;95406.00;;;31.42
30001;BMP280;16845;48.670;9.000;2023-06-05T14:12:07;95389.16;;;32.42
30001;BMP280;16845;48.670;9.000;2023-06-05T14:14:35;95395.53;;;31.58
30001;BMP280;16845;48.670;9.000;2023-06-05T14:17:02;95395.25;;;30.84
30001;BMP280;16845;48.670;9.000;2023-06-05T14:19:28;95389.84;;;31.32